createdAt,value
2023-04-21T00:01:43.333Z,100150.72
2023-04-21T00:04:15.358Z,100137.84
2023-04-21T00:06:44.564Z,100130.13
2023-04-21T00:09:12.822Z,100131.91
2023-04-21T00:11:40.731Z,100134.13
2023-04-21T00:14:08.642Z,100133.56
2023-04-21T00:16:36.644Z,100120.16
2023-04-21T00:19:07.573Z,100125.25
2023-04-21T00:21:36.498Z,100125.53
2023-04-21T00:24:04.913Z,100126.75
2023-04-21T00:26:32.856Z,100119.72
2023-04-21T00:29:00.800Z,100107.66
2023-04-21T00:31:28.801Z,100115.63
2023-04-21T00:33:56.890Z,100114.97
2023-04-21T00:36:28.476Z,100105.84
2023-04-21T00:38:56.562Z,100098.56
2023-04-21T00:41:24.835Z,100105.38
2023-04-21T00:44:02.549Z,100097.81
2023-04-21T00:46:30.703Z,100109.56
2023-04-21T00:48:59.228Z,100100.09
2023-04-21T00:51:30.024Z,100071.63
2023-04-21T00:53:58.089Z,100087.91
2023-04-21T00:56:27.763Z,100078.44
2023-04-21T00:58:56.418Z,100086.03
2023-04-21T01:01:24.474Z,100083.97
2023-04-21T01:03:52.965Z,100089.25
2023-04-21T01:06:21.229Z,100063.97
2023-04-21T01:08:53.477Z,100085.25
2023-04-21T01:11:21.384Z,100098.81
2023-04-21T01:13:49.353Z,100097.72
2023-04-21T01:16:19.124Z,100107.00
2023-04-21T01:18:47.269Z,100116.22
2023-04-21T01:21:16.757Z,100069.00
2023-04-21T01:23:46.074Z,100145.22
2023-04-21T01:26:14.534Z,100140.22
2023-04-21T01:28:42.626Z,100129.94
2023-04-21T01:31:10.617Z,100082.34
2023-04-21T01:33:38.581Z,100132.31
2023-04-21T01:36:07.236Z,100136.28
2023-04-21T01:38:35.176Z,100144.91
2023-04-21T01:41:04.751Z,100132.84
2023-04-21T01:43:32.733Z,100128.88
2023-04-21T01:46:00.839Z,100120.13
2023-04-21T01:48:28.815Z,100135.28
2023-04-21T01:50:56.840Z,100140.19
2023-04-21T01:53:24.776Z,100138.03
2023-04-21T01:55:52.772Z,100129.50
2023-04-21T01:58:22.230Z,100127.94
2023-04-21T02:00:50.165Z,100056.81
2023-04-21T02:03:18.709Z,100115.78
2023-04-21T02:05:47.271Z,100109.94
2023-04-21T02:08:15.267Z,100099.88
2023-04-21T02:10:43.230Z,100088.75
2023-04-21T02:13:11.153Z,100092.84
2023-04-21T02:15:40.480Z,100082.47
2023-04-21T02:18:09.086Z,100074.13
2023-04-21T02:20:37.303Z,100075.03
2023-04-21T02:23:05.225Z,100062.41
2023-04-21T02:25:33.241Z,100061.84
2023-04-21T02:28:01.233Z,100058.53
2023-04-21T02:30:29.317Z,100061.16
2023-04-21T02:32:58.794Z,100063.84
2023-04-21T02:35:27.243Z,100066.00
2023-04-21T02:37:55.186Z,100013.13
2023-04-21T02:40:23.105Z,100063.81
2023-04-21T02:42:51.129Z,100065.34
2023-04-21T02:45:19.158Z,100062.72
2023-04-21T02:47:47.099Z,100067.25
2023-04-21T02:50:16.612Z,100056.97
2023-04-21T02:52:44.531Z,100057.53
2023-04-21T02:55:12.423Z,100070.34
2023-04-21T02:57:40.667Z,100071.28
2023-04-21T03:00:11.923Z,100079.25
2023-04-21T03:02:40.068Z,100081.66
2023-04-21T03:05:08.976Z,100087.28
2023-04-21T03:07:38.421Z,100081.25
2023-04-21T03:10:07.772Z,100078.94
2023-04-21T03:12:35.964Z,100079.19
2023-04-21T03:15:04.175Z,100076.47
2023-04-21T03:17:33.322Z,100080.88
2023-04-21T03:20:01.588Z,100071.00
2023-04-21T03:22:29.926Z,100068.28
2023-04-21T03:24:59.291Z,100081.59
2023-04-21T03:27:27.250Z,100084.44
2023-04-21T03:29:55.687Z,100080.06
2023-04-21T03:32:23.829Z,100087.44
2023-04-21T03:34:52.000Z,100089.22
2023-04-21T03:37:19.988Z,100069.94
2023-04-21T03:39:48.078Z,100092.66
2023-04-21T03:42:17.540Z,100092.16
2023-04-21T03:44:45.567Z,100096.31
2023-04-21T03:47:13.509Z,100101.13
2023-04-21T03:49:41.533Z,100106.78
2023-04-21T03:52:09.571Z,100118.34
2023-04-21T03:54:37.483Z,100119.41
2023-04-21T03:57:05.528Z,100115.75
2023-04-21T03:59:34.891Z,100119.69
2023-04-21T04:02:02.888Z,100077.03
2023-04-21T04:04:31.113Z,100117.84
2023-04-21T04:06:59.292Z,100112.59
2023-04-21T04:09:27.243Z,100126.50
2023-04-21T04:11:55.232Z,100129.31
2023-04-21T04:14:23.641Z,100118.63
2023-04-21T04:16:52.908Z,100134.19
2023-04-21T04:19:20.951Z,100135.94
2023-04-21T04:21:49.373Z,100146.75
2023-04-21T04:24:17.310Z,100148.63
2023-04-21T04:26:45.425Z,100152.34
2023-04-21T04:29:14.132Z,100151.88
2023-04-21T04:31:42.185Z,100152.91
2023-04-21T04:34:11.638Z,100157.59
2023-04-21T04:36:39.540Z,100160.19
2023-04-21T04:39:09.564Z,100163.09
2023-04-21T04:41:37.967Z,100161.78
2023-04-21T04:44:06.302Z,100166.59
2023-04-21T04:46:34.351Z,100157.00
2023-04-21T04:49:02.600Z,100170.03
2023-04-21T04:51:32.608Z,100173.38
2023-04-21T04:54:00.571Z,100120.06
2023-04-21T04:56:28.601Z,100181.06
2023-04-21T04:58:56.541Z,100184.41
2023-04-21T05:01:30.204Z,100198.13
2023-04-21T05:03:58.567Z,100206.34
2023-04-21T05:06:28.534Z,100205.19
2023-04-21T05:08:57.973Z,100202.69
2023-04-21T05:11:25.983Z,100186.91
2023-04-21T05:13:54.357Z,100171.38
2023-04-21T05:16:22.381Z,100204.94
2023-04-21T05:18:54.035Z,100206.88
2023-04-21T05:21:27.752Z,100200.47
2023-04-21T05:23:58.088Z,100195.72
2023-04-21T05:26:27.627Z,100197.59
2023-04-21T05:28:56.262Z,100200.75
2023-04-21T05:31:24.241Z,100211.78
2023-04-21T05:33:52.405Z,100207.81
2023-04-21T05:36:21.199Z,100211.34
2023-04-21T05:38:49.138Z,100205.13
2023-04-21T05:41:18.850Z,100217.84
2023-04-21T05:43:47.632Z,100207.16
2023-04-21T05:46:15.750Z,100223.56
2023-04-21T05:48:43.721Z,100221.72
2023-04-21T05:51:11.950Z,100210.56
2023-04-21T05:53:40.576Z,100230.38
2023-04-21T05:56:10.575Z,100234.94
2023-04-21T05:58:40.246Z,100226.19
2023-04-21T06:01:08.224Z,100236.88
2023-04-21T06:03:36.588Z,100238.88
2023-04-21T06:06:06.171Z,100240.78
2023-04-21T06:08:34.211Z,100229.28
2023-04-21T06:11:02.131Z,100232.47
2023-04-21T06:13:30.045Z,100233.50
2023-04-21T06:15:59.409Z,100228.72
2023-04-21T06:18:28.656Z,100236.34
2023-04-21T06:20:57.257Z,100248.34
2023-04-21T06:23:25.178Z,100242.56
2023-04-21T06:26:04.917Z,100245.25
2023-04-21T06:28:33.217Z,100250.59
2023-04-21T06:31:05.313Z,100249.41
2023-04-21T06:33:34.978Z,100251.28
2023-04-21T06:36:02.959Z,100247.53
2023-04-21T06:38:31.543Z,100244.88
2023-04-21T06:40:59.588Z,100243.50
2023-04-21T06:43:27.562Z,100246.41
2023-04-21T06:45:55.494Z,100248.84
2023-04-21T06:48:26.462Z,100247.97
2023-04-21T06:50:54.492Z,100249.44
2023-04-21T06:53:22.734Z,100247.69
2023-04-21T06:55:50.669Z,100252.81
2023-04-21T06:58:20.635Z,100239.31
2023-04-21T07:00:49.450Z,100249.78
2023-04-21T07:03:17.489Z,100249.41
2023-04-21T07:05:47.314Z,100249.03
2023-04-21T07:08:15.254Z,100246.28
2023-04-21T07:10:43.189Z,100253.03
2023-04-21T07:13:11.117Z,100256.44
2023-04-21T07:15:39.126Z,100250.50
2023-04-21T07:18:07.122Z,100247.75
2023-04-21T07:20:35.098Z,100243.53
2023-04-21T07:23:04.481Z,100251.59
2023-04-21T07:25:32.446Z,100251.59
2023-04-21T07:28:00.434Z,100257.47
2023-04-21T07:30:29.138Z,100253.06
2023-04-21T07:32:57.594Z,100241.06
2023-04-21T07:35:25.746Z,100242.59
2023-04-21T07:37:53.683Z,100262.78
2023-04-21T07:40:23.019Z,100251.13
2023-04-21T07:42:51.069Z,100253.97
2023-04-21T07:45:19.300Z,100259.44
2023-04-21T07:47:47.391Z,100262.09
2023-04-21T07:50:15.394Z,100260.31
2023-04-21T07:52:43.333Z,100255.53
2023-04-21T07:55:11.377Z,100262.19
2023-04-21T07:57:40.863Z,100266.91
2023-04-21T08:00:10.442Z,100266.56
2023-04-21T08:02:38.502Z,100266.91
2023-04-21T08:05:07.235Z,100254.53
2023-04-21T08:07:35.274Z,100265.31
2023-04-21T08:10:03.518Z,100261.69
2023-04-21T08:12:31.478Z,100266.84
2023-04-21T08:15:05.797Z,100263.97
2023-04-21T08:17:33.773Z,100269.06
2023-04-21T08:20:02.025Z,100265.03
2023-04-21T08:22:30.054Z,100255.28
2023-04-21T08:24:58.048Z,100263.81
2023-04-21T08:27:26.276Z,100266.16
2023-04-21T08:29:54.250Z,100268.13
2023-04-21T08:32:24.738Z,100263.53
2023-04-21T08:34:53.504Z,100252.75
2023-04-21T08:37:22.360Z,100261.91
2023-04-21T08:39:51.840Z,100255.25
2023-04-21T08:42:19.879Z,100256.31
2023-04-21T08:44:48.352Z,100253.28
2023-04-21T08:47:16.719Z,100258.66
2023-04-21T08:49:46.359Z,100251.72
2023-04-21T08:52:15.193Z,100260.13
2023-04-21T08:54:43.905Z,100267.81
2023-04-21T08:57:15.885Z,100264.19
2023-04-21T08:59:44.212Z,100259.91
2023-04-21T09:02:15.182Z,100259.69
2023-04-21T09:04:46.912Z,100264.44
2023-04-21T09:07:33.077Z,100262.59
2023-04-21T09:10:01.838Z,100252.09
2023-04-21T09:12:31.195Z,100232.50
2023-04-21T09:15:00.878Z,100263.16
2023-04-21T09:17:32.789Z,100264.03
2023-04-21T09:20:15.558Z,100262.06
2023-04-21T09:22:43.522Z,100253.91
2023-04-21T09:25:11.814Z,100257.94
2023-04-21T09:27:39.763Z,100258.34
2023-04-21T09:30:09.415Z,100266.44
2023-04-21T09:32:38.570Z,100262.97
2023-04-21T09:35:11.443Z,100237.84
2023-04-21T09:37:40.138Z,100254.53
2023-04-21T09:40:08.809Z,100249.13
2023-04-21T09:42:39.599Z,100257.66
2023-04-21T09:45:29.072Z,100255.38
2023-04-21T09:48:00.587Z,100242.00
2023-04-21T09:53:05.445Z,100267.53
2023-04-21T09:55:35.007Z,100255.56
2023-04-21T09:58:05.502Z,100255.56
2023-04-21T10:00:39.355Z,100265.91
2023-04-21T10:03:10.787Z,100263.06
2023-04-21T10:05:42.890Z,100260.25
2023-04-21T10:08:12.692Z,100260.59
2023-04-21T10:10:41.264Z,100261.75
2023-04-21T10:13:16.702Z,100259.66
2023-04-21T10:15:44.749Z,100259.41
2023-04-21T10:18:19.945Z,100260.97
2023-04-21T10:20:57.164Z,100258.53
2023-04-21T10:23:29.413Z,100265.53
2023-04-21T10:26:04.282Z,100247.06
2023-04-21T10:28:49.780Z,100259.84
2023-04-21T10:31:23.114Z,100260.00
2023-04-21T10:34:20.412Z,100259.91
2023-04-21T10:37:15.544Z,100268.97
2023-04-21T10:39:58.675Z,100221.91
2023-04-21T10:42:34.912Z,100268.13
2023-04-21T10:45:13.258Z,100266.19
2023-04-21T10:47:49.126Z,100275.81
2023-04-21T10:50:22.906Z,100274.59
2023-04-21T10:52:57.966Z,100269.34
2023-04-21T10:55:29.169Z,100272.94
2023-04-21T10:57:59.177Z,100278.50
2023-04-21T11:00:27.424Z,100275.44
2023-04-21T11:03:00.826Z,100234.59
2023-04-21T11:05:34.838Z,100279.84
2023-04-21T11:08:08.552Z,100277.19
2023-04-21T11:10:51.341Z,100266.44
2023-04-21T11:13:22.039Z,100277.47
2023-04-21T11:16:04.994Z,100278.53
2023-04-21T11:18:38.977Z,100270.34
2023-04-21T11:21:17.819Z,100270.59
2023-04-21T11:23:54.834Z,100267.72
2023-04-21T11:26:34.177Z,100266.03
2023-04-21T11:29:03.991Z,100275.22
2023-04-21T11:31:32.318Z,100268.97
2023-04-21T11:34:00.728Z,100259.22
2023-04-21T11:36:29.332Z,100262.63
2023-04-21T11:38:58.753Z,100263.13
2023-04-21T11:41:26.932Z,100264.78
2023-04-21T11:43:54.913Z,100264.44
2023-04-21T11:46:26.934Z,100262.16
2023-04-21T11:49:02.415Z,100255.84
2023-04-21T11:51:35.282Z,100261.22
2023-04-21T11:54:07.993Z,100253.16
2023-04-21T11:56:38.388Z,100254.16
2023-04-21T11:59:10.954Z,100229.03
2023-04-21T12:01:44.780Z,100235.28
2023-04-21T12:04:16.222Z,100257.28
2023-04-21T12:06:45.737Z,100256.38
2023-04-21T12:09:20.902Z,100254.69
2023-04-21T12:11:50.352Z,100258.97
2023-04-21T12:14:19.213Z,100260.22
2023-04-21T12:16:51.374Z,100266.44
2023-04-21T12:19:26.690Z,100253.47
2023-04-21T12:21:55.770Z,100252.91
2023-04-21T12:24:25.432Z,100247.25
2023-04-21T12:26:53.351Z,100253.03
2023-04-21T12:29:21.358Z,100254.94
2023-04-21T12:31:49.398Z,100252.63
2023-04-21T12:34:17.371Z,100245.53
2023-04-21T12:36:45.340Z,100240.94
2023-04-21T12:39:13.541Z,100249.59
2023-04-21T12:41:42.869Z,100240.44
2023-04-21T12:44:10.881Z,100188.09
2023-04-21T12:46:39.360Z,100237.84
2023-04-21T12:49:07.720Z,100236.13
2023-04-21T12:51:35.922Z,100230.38
2023-04-21T12:54:03.957Z,100220.06
2023-04-21T12:56:32.057Z,100209.09
2023-04-21T12:59:01.533Z,100216.34
2023-04-21T13:01:29.622Z,100229.81
2023-04-21T13:03:57.866Z,100219.38
2023-04-21T13:06:26.358Z,100222.78
2023-04-21T13:08:54.291Z,100212.38
2023-04-21T13:11:22.519Z,100222.31
2023-04-21T13:13:50.440Z,100211.25
2023-04-21T13:16:19.831Z,100216.56
2023-04-21T13:18:48.038Z,100200.81
2023-04-21T13:21:16.009Z,100218.75
2023-04-21T13:23:43.996Z,100225.41
2023-04-21T13:26:12.103Z,100203.53
2023-04-21T13:28:40.188Z,100214.66
2023-04-21T13:31:08.246Z,100222.22
2023-04-21T13:33:37.772Z,100224.31
2023-04-21T13:36:06.057Z,100227.22
2023-04-21T13:38:34.182Z,100218.41
2023-04-21T13:41:02.301Z,100230.13
2023-04-21T13:43:30.262Z,100223.41
2023-04-21T13:45:58.708Z,100217.31
2023-04-21T13:48:26.807Z,100221.69
2023-04-21T13:50:56.113Z,100218.06
2023-04-21T13:53:24.101Z,100220.19
2023-04-21T13:55:52.961Z,100223.81
2023-04-21T13:58:21.022Z,100219.38
2023-04-21T14:00:49.183Z,100221.09
2023-04-21T14:03:17.390Z,100187.63
2023-04-21T14:05:45.685Z,100222.59
2023-04-21T14:08:15.112Z,100216.22
2023-04-21T14:10:43.047Z,100219.22
2023-04-21T14:13:17.322Z,100211.63
2023-04-21T14:15:55.180Z,100216.50
2023-04-21T14:18:23.356Z,100220.19
2023-04-21T14:20:51.629Z,100210.69
2023-04-21T14:23:20.979Z,100213.69
2023-04-21T14:25:48.984Z,100212.22
2023-04-21T14:28:16.954Z,100204.03
2023-04-21T14:30:45.136Z,100215.63
2023-04-21T14:33:13.216Z,100196.81
2023-04-21T14:35:42.165Z,100197.19
2023-04-21T14:38:10.126Z,100209.31
2023-04-21T14:40:39.460Z,100207.53
2023-04-21T14:43:07.448Z,100212.19
2023-04-21T14:45:35.427Z,100209.72
2023-04-21T14:48:04.303Z,100201.75
2023-04-21T14:50:32.271Z,100217.53
2023-04-21T14:53:00.195Z,100208.28
2023-04-21T14:55:28.191Z,100194.53
2023-04-21T14:57:57.583Z,100212.72
2023-04-21T15:00:25.910Z,100211.34
2023-04-21T15:02:54.081Z,100206.41
2023-04-21T15:05:22.216Z,100222.13
2023-04-21T15:07:50.190Z,100216.19
2023-04-21T15:10:19.335Z,100214.09
2023-04-21T15:12:47.299Z,100208.72
2023-04-21T15:15:16.629Z,100212.28
2023-04-21T15:17:44.607Z,100201.66
2023-04-21T15:20:12.924Z,100205.13
2023-04-21T15:22:41.285Z,100198.91
2023-04-21T15:25:10.018Z,100194.63
2023-04-21T15:27:38.005Z,100207.75
2023-04-21T15:30:06.854Z,100208.41
2023-04-21T15:32:36.338Z,100203.97
2023-04-21T15:35:04.404Z,100192.00
2023-04-21T15:37:32.366Z,100198.03
2023-04-21T15:40:00.405Z,100199.69
2023-04-21T15:42:28.442Z,100186.50
2023-04-21T15:44:57.373Z,100193.53
2023-04-21T15:47:25.460Z,100194.22
2023-04-21T15:49:55.061Z,100190.44
2023-04-21T15:52:23.044Z,100188.50
2023-04-21T15:54:51.177Z,100189.47
2023-04-21T15:57:19.638Z,100186.72
2023-04-21T15:59:47.590Z,100193.56
2023-04-21T16:02:15.792Z,100189.97
2023-04-21T16:04:44.498Z,100186.81
2023-04-21T16:07:14.166Z,100181.88
2023-04-21T16:09:42.146Z,100186.28
2023-04-21T16:12:10.534Z,100183.56
2023-04-21T16:14:53.505Z,100188.66
2023-04-21T16:17:26.745Z,100182.44
2023-04-21T16:19:54.850Z,100188.91
2023-04-21T16:22:24.347Z,100190.81
2023-04-21T16:24:53.205Z,100188.25
2023-04-21T16:27:21.506Z,100185.34
2023-04-21T16:29:50.279Z,100184.84
2023-04-21T16:32:18.348Z,100181.31
2023-04-21T16:34:46.350Z,100192.06
2023-04-21T16:37:14.441Z,100188.97
2023-04-21T16:39:43.777Z,100187.59
2023-04-21T16:42:11.733Z,100186.81
2023-04-21T16:44:40.007Z,100191.53
2023-04-21T16:47:08.344Z,100200.75
2023-04-21T16:49:36.337Z,100200.88
2023-04-21T16:52:04.307Z,100198.00
2023-04-21T16:54:32.245Z,100200.34
2023-04-21T16:57:02.166Z,100203.63
2023-04-21T16:59:31.530Z,100204.69
2023-04-21T17:02:00.936Z,100201.94
2023-04-21T17:04:28.890Z,100197.28
2023-04-21T17:06:56.922Z,100201.00
2023-04-21T17:09:24.893Z,100208.84
2023-04-21T17:11:52.794Z,100209.94
2023-04-21T17:14:22.261Z,100203.75
2023-04-21T17:16:50.262Z,100216.81
2023-04-21T17:19:18.286Z,100218.91
2023-04-21T17:21:46.206Z,100221.28
2023-04-21T17:24:14.119Z,100218.03
2023-04-21T17:26:42.132Z,100219.09
2023-04-21T17:29:11.165Z,100221.03
2023-04-21T17:31:40.573Z,100229.44
2023-04-21T17:34:08.512Z,100219.88
2023-04-21T17:36:36.735Z,100227.16
2023-04-21T17:39:04.749Z,100233.41
2023-04-21T17:41:32.702Z,100219.31
2023-04-21T17:44:01.039Z,100236.66
2023-04-21T17:46:29.077Z,100233.88
2023-04-21T17:48:58.414Z,100236.50
2023-04-21T17:51:26.350Z,100232.63
2023-04-21T17:53:54.258Z,100236.22
2023-04-21T17:56:22.455Z,100243.50
2023-04-21T17:58:50.345Z,100247.50
2023-04-21T18:01:18.319Z,100240.19
2023-04-21T18:03:47.049Z,100249.63
2023-04-21T18:06:16.605Z,100253.44
2023-04-21T18:08:44.574Z,100247.38
2023-04-21T18:11:13.101Z,100244.88
2023-04-21T18:13:41.039Z,100241.94
2023-04-21T18:16:09.081Z,100254.50
2023-04-21T18:18:37.193Z,100254.50
2023-04-21T18:21:05.455Z,100249.16
2023-04-21T18:23:35.614Z,100259.75
2023-04-21T18:26:03.518Z,100263.56
2023-04-21T18:28:32.040Z,100253.47
2023-04-21T18:31:00.773Z,100261.31
2023-04-21T18:33:28.942Z,100259.91
2023-04-21T18:35:56.866Z,100256.69
2023-04-21T18:38:24.828Z,100263.19
2023-04-21T18:40:54.179Z,100261.94
2023-04-21T18:43:22.373Z,100271.69
2023-04-21T18:45:50.304Z,100272.75
2023-04-21T18:48:18.204Z,100273.13
2023-04-21T18:50:46.936Z,100274.09
2023-04-21T18:53:14.851Z,100274.38
2023-04-21T18:55:42.763Z,100267.78
2023-04-21T18:58:12.052Z,100271.22
2023-04-21T19:00:40.254Z,100276.81
2023-04-21T19:03:09.351Z,100270.75
2023-04-21T19:05:40.468Z,100273.47
2023-04-21T19:08:10.290Z,100275.34
2023-04-21T19:10:38.930Z,100274.06
2023-04-21T19:13:06.899Z,100275.13
2023-04-21T19:15:36.753Z,100275.84
2023-04-21T19:18:04.850Z,100280.13
2023-04-21T19:20:32.957Z,100284.41
2023-04-21T19:23:01.230Z,100278.47
2023-04-21T19:25:29.294Z,100278.13
2023-04-21T19:27:57.268Z,100286.28
2023-04-21T19:30:25.344Z,100279.06
2023-04-21T19:32:55.784Z,100279.31
2023-04-21T19:35:23.765Z,100282.97
2023-04-21T19:37:51.835Z,100282.97
2023-04-21T19:40:20.503Z,100282.53
2023-04-21T19:42:48.432Z,100291.75
2023-04-21T19:45:16.620Z,100290.19
2023-04-21T19:47:44.629Z,100300.06
2023-04-21T19:50:14.230Z,100297.34
2023-04-21T19:52:42.121Z,100289.63
2023-04-21T19:55:10.747Z,100298.19
2023-04-21T19:57:38.652Z,100296.75
2023-04-21T20:00:09.217Z,100296.75
2023-04-21T20:02:37.199Z,100294.25
2023-04-21T20:05:07.472Z,100301.25
2023-04-21T20:07:37.294Z,100299.69
2023-04-21T20:10:06.017Z,100295.78
2023-04-21T20:12:34.125Z,100300.06
2023-04-21T20:15:02.266Z,100309.69
2023-04-21T20:17:30.539Z,100294.72
2023-04-21T20:19:58.987Z,100290.91
2023-04-21T20:22:26.976Z,100295.16
2023-04-21T20:24:58.073Z,100295.78
2023-04-21T20:27:26.190Z,100291.94
2023-04-21T20:29:54.197Z,100285.53
2023-04-21T20:32:22.105Z,100299.25
2023-04-21T20:34:49.992Z,100300.47
2023-04-21T20:37:17.939Z,100293.34
2023-04-21T20:39:46.929Z,100297.72
2023-04-21T20:42:16.257Z,100294.03
2023-04-21T20:44:44.131Z,100295.72
2023-04-21T20:47:12.610Z,100295.94
2023-04-21T20:49:42.605Z,100296.66
2023-04-21T20:52:10.941Z,100297.84
2023-04-21T20:54:38.964Z,100303.06
2023-04-21T20:57:07.655Z,100292.94
2023-04-21T20:59:37.266Z,100301.44
2023-04-21T21:02:05.855Z,100299.88
2023-04-21T21:04:33.902Z,100303.16
2023-04-21T21:07:02.424Z,100305.69
2023-04-21T21:09:31.706Z,100309.69
2023-04-21T21:11:59.626Z,100311.91
2023-04-21T21:14:27.531Z,100308.72
2023-04-21T21:16:56.883Z,100313.09
2023-04-21T21:19:24.907Z,100312.94
2023-04-21T21:21:52.837Z,100312.66
2023-04-21T21:24:20.820Z,100316.63
2023-04-21T21:26:48.762Z,100307.59
2023-04-21T21:29:16.688Z,100312.34
2023-04-21T21:31:44.656Z,100321.72
2023-04-21T21:34:13.978Z,100317.13
2023-04-21T21:36:41.924Z,100312.50
2023-04-21T21:39:11.284Z,100314.53
2023-04-21T21:41:39.846Z,100306.63
2023-04-21T21:44:07.787Z,100315.13
2023-04-21T21:46:35.789Z,100314.44
2023-04-21T21:49:03.826Z,100311.84
2023-04-21T21:51:33.188Z,100311.22
2023-04-21T21:54:01.096Z,100314.03
2023-04-21T21:56:29.007Z,100316.53
2023-04-21T21:58:57.004Z,100314.44
2023-04-21T22:01:25.064Z,100323.25
2023-04-21T22:03:53.845Z,100326.19
2023-04-21T22:06:24.492Z,100338.78
2023-04-21T22:08:53.864Z,100342.44
2023-04-21T22:11:21.975Z,100347.59
2023-04-21T22:13:49.896Z,100356.13
2023-04-21T22:16:18.692Z,100358.50
2023-04-21T22:18:47.237Z,100364.53
2023-04-21T22:21:15.305Z,100374.63
2023-04-21T22:23:43.363Z,100376.81
2023-04-21T22:26:12.685Z,100370.91
2023-04-21T22:28:41.851Z,100376.25
2023-04-21T22:31:10.459Z,100376.97
2023-04-21T22:33:38.637Z,100373.69
2023-04-21T22:36:09.716Z,100379.56
2023-04-21T22:38:38.414Z,100386.78
2023-04-21T22:41:06.669Z,100391.94
2023-04-21T22:43:36.211Z,100400.34
2023-04-21T22:46:04.236Z,100402.44
2023-04-21T22:48:32.852Z,100401.34
2023-04-21T22:51:01.687Z,100401.75
2023-04-21T22:53:29.834Z,100393.94
2023-04-21T22:55:57.827Z,100394.03
2023-04-21T22:58:26.565Z,100396.03
2023-04-21T23:00:55.983Z,100385.47
2023-04-21T23:03:24.659Z,100388.03
2023-04-21T23:05:52.761Z,100387.38
2023-04-21T23:08:20.665Z,100392.00
2023-04-21T23:10:48.880Z,100394.69
2023-04-21T23:13:16.816Z,100398.25
2023-04-21T23:15:44.820Z,100406.00
2023-04-21T23:18:14.148Z,100394.53
2023-04-21T23:20:42.097Z,100394.97
2023-04-21T23:23:10.173Z,100395.59
2023-04-21T23:25:38.085Z,100398.94
2023-04-21T23:28:06.046Z,100393.09
2023-04-21T23:30:34.192Z,100395.50
2023-04-21T23:33:02.403Z,100394.47
2023-04-21T23:35:31.822Z,100387.69
2023-04-21T23:37:59.717Z,100387.88
2023-04-21T23:40:27.730Z,100384.47
2023-04-21T23:42:55.985Z,100381.03
2023-04-21T23:45:23.886Z,100382.59
2023-04-21T23:47:51.789Z,100382.06
2023-04-21T23:50:19.804Z,100382.88
2023-04-21T23:52:49.199Z,100380.69
2023-04-21T23:55:17.244Z,100382.00
2023-04-21T23:57:46.898Z,100378.63
